Time;durP1;ratioP1;P1;durP2;ratioP2;P2;SDS_P1;SDS_P2;PMS_P1;PMS_P2;Temp;Humidity;BMP_temperature;BMP_pressure;BME280_temperature;BME280_humidity;BME280_pressure;Samples;Min_cycle;Max_cycle;Signal;HPM_P1;HPM_P2
2022/06/24 00:00:16;;;;;;;9.95;8.40;;;;;;;22.52;94.62;99926.22;1688929;84;21535;-67
2022/06/24 00:02:50;;;;;;;11.00;8.80;;;;;;;22.48;94.74;99919.15;1663510;84;21027;-67
2022/06/24 00:05:17;;;;;;;10.18;8.68;;;;;;;22.40;95.80;99916.03;1687630;83;21535;-67
2022/06/24 00:07:51;;;;;;;9.35;8.45;;;;;;;22.31;96.46;99911.73;1682408;84;21043;-67
2022/06/24 00:10:25;;;;;;;10.15;8.50;;;;;;;22.26;96.76;99913.17;1683984;83;21125;-67
2022/06/24 00:12:53;;;;;;;8.98;8.08;;;;;;;22.30;96.06;99910.56;1689668;84;21524;-67
2022/06/24 00:15:32;;;;;;;14.98;8.53;;;;;;;22.27;95.77;99916.14;1687205;83;21492;-68
2022/06/24 00:18:16;;;;;;;10.00;8.43;;;;;;;22.19;96.37;99922.14;1684373;83;21042;-67
2022/06/24 00:20:51;;;;;;;10.13;8.83;;;;;;;22.24;96.06;99919.06;1679613;83;21121;-67
2022/06/24 00:23:21;;;;;;;10.08;8.35;;;;;;;22.24;95.55;99933.48;1673099;83;21031;-67
2022/06/24 00:25:49;;;;;;;10.55;8.85;;;;;;;22.20;95.83;99934.25;1689541;83;21046;-67
2022/06/24 00:28:17;;;;;;;11.35;8.43;;;;;;;22.28;95.38;99925.64;1686527;83;21031;-67
2022/06/24 00:30:53;;;;;;;12.05;9.05;;;;;;;22.12;95.97;99928.97;1687797;84;21074;-67
2022/06/24 00:33:23;;;;;;;11.75;8.25;;;;;;;22.07;96.15;99925.52;1691568;83;21114;-67
2022/06/24 00:35:59;;;;;;;10.05;8.20;;;;;;;21.97;96.54;99922.19;1686790;84;21128;-67
2022/06/24 00:38:37;;;;;;;11.60;8.75;;;;;;;22.11;95.81;99929.47;1688074;83;21153;-67
2022/06/24 00:41:11;;;;;;;11.93;8.75;;;;;;;22.09;95.63;99927.49;1689188;83;21111;-67
2022/06/24 00:43:42;;;;;;;11.48;8.80;;;;;;;22.08;96.30;99930.27;1686949;83;21042;-67
2022/06/24 00:46:17;;;;;;;11.18;8.18;;;;;;;22.14;95.75;99926.55;1688177;83;21106;-67
2022/06/24 00:48:52;;;;;;;9.33;7.95;;;;;;;22.13;96.60;99931.44;1686097;83;21543;-67
2022/06/24 00:51:23;;;;;;;10.20;8.50;;;;;;;22.24;95.67;99932.17;1684853;83;21493;-67
2022/06/24 00:53:53;;;;;;;9.83;8.75;;;;;;;22.25;95.78;99935.14;1688936;84;21237;-68
2022/06/24 00:56:25;;;;;;;10.70;8.58;;;;;;;22.14;96.44;99937.03;1686082;84;21035;-67
2022/06/24 00:59:01;;;;;;;12.82;9.00;;;;;;;22.19;96.78;99936.06;1683824;84;21031;-68
2022/06/24 01:01:35;;;;;;;10.23;7.95;;;;;;;22.23;95.66;99935.77;1687096;85;21075;-68
2022/06/24 01:04:04;;;;;;;;;;;;;;;22.23;95.19;99934.45;1683460;84;21027;-68
2022/06/24 01:06:32;;;;;;;10.55;8.65;;;;;;;22.26;95.07;99921.85;1682145;85;20413;-67
2022/06/24 01:08:59;;;;;;;12.55;9.05;;;;;;;22.30;95.55;99917.94;1680285;85;21088;-67
2022/06/24 01:11:30;;;;;;;10.43;9.30;;;;;;;22.34;95.75;99909.27;1684447;84;21174;-67
2022/06/24 01:13:57;;;;;;;11.55;9.40;;;;;;;22.37;96.00;99908.97;1682196;84;21011;-68
2022/06/24 01:16:25;;;;;;;11.97;9.60;;;;;;;22.52;95.87;99920.97;1678639;84;22270;-68
2022/06/24 01:18:55;;;;;;;11.28;8.98;;;;;;;22.62;95.46;99925.59;1682344;85;21040;-68
2022/06/24 01:21:43;;;;;;;11.18;9.48;;;;;;;22.55;95.68;99918.05;1677527;85;21036;-68
2022/06/24 01:24:20;;;;;;;9.55;8.50;;;;;;;22.51;96.24;99912.79;1681401;85;21051;-68
2022/06/24 01:26:54;;;;;;;10.20;8.13;;;;;;;22.48;95.73;99913.09;1679885;85;21519;-68
2022/06/24 01:29:23;;;;;;;10.40;8.23;;;;;;;22.45;94.85;99910.30;1681734;85;21075;-68
2022/06/24 01:31:53;;;;;;;10.85;8.68;;;;;;;22.37;94.99;99911.09;1679485;85;21070;-68
2022/06/24 01:34:24;;;;;;;11.15;8.93;;;;;;;22.27;95.36;99914.83;1680619;85;21047;-68
2022/06/24 01:36:51;;;;;;;10.30;8.78;;;;;;;22.47;95.06;99928.52;1681564;85;21085;-68
2022/06/24 01:39:25;;;;;;;11.05;8.98;;;;;;;22.53;94.43;99932.63;1681701;84;21115;-67
2022/06/24 01:41:50;;;;;;;10.78;9.58;;;;;;;22.40;95.07;99934.39;1684193;85;21015;-68
2022/06/24 01:44:19;;;;;;;10.23;9.23;;;;;;;22.39;95.92;99937.17;1677871;84;21075;-68
2022/06/24 01:46:46;;;;;;;10.28;9.15;;;;;;;22.45;96.06;99940.47;1684712;85;21050;-67
2022/06/24 01:49:13;;;;;;;10.20;9.10;;;;;;;22.51;95.88;99931.96;1687723;85;21035;-67
2022/06/24 01:51:44;;;;;;;12.73;9.23;;;;;;;22.57;95.37;99933.95;1680310;85;21130;-68
2022/06/24 01:54:13;;;;;;;10.48;9.30;;;;;;;22.67;95.02;99935.59;1682139;85;21031;-68
2022/06/24 01:56:40;;;;;;;11.65;9.25;;;;;;;22.67;94.87;99943.00;1684414;85;21578;-68
2022/06/24 01:59:09;;;;;;;10.53;9.43;;;;;;;22.71;94.87;99932.52;1657325;85;21068;-67
2022/06/24 02:01:37;;;;;;;11.50;9.33;;;;;;;22.81;94.90;99932.37;1683408;85;21567;-67
2022/06/24 02:04:04;;;;;;;11.12;10.00;;;;;;;22.74;95.22;99932.17;1678512;85;21541;-68
2022/06/24 02:06:33;;;;;;;12.50;10.30;;;;;;;22.88;95.11;99939.92;1678131;85;21088;-68
2022/06/24 02:09:00;;;;;;;10.53;9.35;;;;;;;23.11;94.17;99934.06;1680116;85;21158;-67
2022/06/24 02:14:15;;;;;;;12.07;9.60;;;;;;;23.34;92.81;99935.07;1660753;85;21068;-68
2022/06/24 02:16:43;;;;;;;11.20;9.85;;;;;;;23.57;91.80;99929.95;1677343;85;21044;-67
2022/06/24 02:19:12;;;;;;;11.35;9.65;;;;;;;23.67;91.12;99931.59;1684177;85;21535;-67
2022/06/24 02:21:39;;;;;;;12.13;8.88;;;;;;;23.70;89.74;99938.66;1682490;85;21539;-67
2022/06/24 02:24:07;;;;;;;11.38;10.15;;;;;;;23.78;89.58;99932.11;1683167;85;21586;-67
2022/06/24 02:26:35;;;;;;;10.93;9.75;;;;;;;23.82;89.65;99926.00;1682419;85;21012;-67
2022/06/24 02:29:03;;;;;;;12.82;9.78;;;;;;;23.92;89.68;99928.44;1681278;85;21278;-67
2022/06/24 02:31:31;;;;;;;11.00;8.85;;;;;;;23.95;89.92;99936.00;1685361;85;21098;-67
2022/06/24 02:33:58;;;;;;;12.10;9.33;;;;;;;24.16;89.30;99936.75;1680708;84;21591;-67
2022/06/24 02:36:25;;;;;;;11.30;9.25;;;;;;;24.40;87.82;99934.02;1683051;84;21050;-67
2022/06/24 02:38:53;;;;;;;10.60;9.18;;;;;;;24.32;88.13;99939.81;1678272;84;21111;-67
2022/06/24 02:41:20;;;;;;;11.85;9.93;;;;;;;24.47;88.47;99932.02;1676021;85;21151;-67
2022/06/24 02:43:47;;;;;;;10.50;8.80;;;;;;;24.42;89.02;99936.48;1677087;85;21060;-67
2022/06/24 02:46:20;;;;;;;13.45;9.50;;;;;;;24.48;88.95;99928.41;1674204;85;21000;-67
2022/06/24 02:48:46;;;;;;;11.43;10.32;;;;;;;24.51;89.37;99926.76;1675153;85;21051;-67
2022/06/24 02:51:15;;;;;;;10.88;9.78;;;;;;;24.56;89.29;99923.13;1676459;85;21055;-66
2022/06/24 02:53:47;;;;;;;12.28;9.23;;;;;;;24.72;88.82;99926.98;1675748;85;21035;-66
2022/06/24 02:56:14;;;;;;;11.28;9.00;;;;;;;24.86;88.00;99924.10;1678009;84;21037;-67
2022/06/24 02:58:42;;;;;;;10.43;9.10;;;;;;;25.02;86.76;99919.22;1681578;84;21527;-67
2022/06/24 03:01:10;;;;;;;10.28;9.08;;;;;;;25.07;86.96;99928.72;1682610;84;21094;-67
2022/06/24 03:03:38;;;;;;;12.45;9.65;;;;;;;25.08;87.14;99926.41;1679416;84;21083;-67
2022/06/24 03:06:06;;;;;;;13.53;10.55;;;;;;;25.33;85.84;99924.92;1687894;84;21070;-67
2022/06/24 03:08:34;;;;;;;11.60;9.88;;;;;;;25.33;86.08;99932.33;1680055;84;21616;-67
2022/06/24 03:11:03;;;;;;;11.75;10.55;;;;;;;25.38;85.41;99929.15;1678506;84;21544;-67
2022/06/24 03:13:30;;;;;;;13.18;10.55;;;;;;;25.51;86.00;99928.56;1682172;83;21031;-67
2022/06/24 03:15:58;;;;;;;12.63;9.88;;;;;;;25.50;85.99;99928.23;1685099;84;21086;-67
2022/06/24 03:18:26;;;;;;;11.05;9.80;;;;;;;25.59;85.74;99927.16;1681794;83;21098;-66
2022/06/24 03:20:53;;;;;;;13.40;10.28;;;;;;;25.79;85.06;99928.75;1682617;84;21114;-66
2022/06/24 03:23:21;;;;;;;11.78;10.45;;;;;;;26.15;83.06;99935.46;1684251;83;21091;-66
2022/06/24 03:25:48;;;;;;;12.73;10.23;;;;;;;26.39;82.84;99937.48;1683725;84;21549;-66
2022/06/24 03:28:15;;;;;;;14.65;10.85;;;;;;;26.36;82.65;99937.88;1679418;83;21059;-66
2022/06/24 03:30:42;;;;;;;16.97;12.05;;;;;;;26.79;80.74;99940.61;1677525;84;21012;-66
2022/06/24 03:33:10;;;;;;;17.87;11.40;;;;;;;26.71;80.25;99945.50;1681277;84;21095;-66
2022/06/24 03:35:37;;;;;;;14.85;11.38;;;;;;;26.71;80.07;99946.83;1682600;85;21075;-66
2022/06/24 03:38:05;;;;;;;15.10;12.00;;;;;;;26.73;80.23;99942.17;1680578;85;21095;-66
2022/06/24 03:40:32;;;;;;;17.87;12.40;;;;;;;26.73;80.72;99944.81;1679536;85;21055;-66
2022/06/24 03:42:59;;;;;;;14.60;12.35;;;;;;;26.72;81.87;99951.12;1680161;85;21574;-66
2022/06/24 03:45:27;;;;;;;20.45;15.28;;;;;;;26.78;82.56;99953.48;1680059;85;21480;-66
2022/06/24 03:47:54;;;;;;;21.37;15.20;;;;;;;27.06;81.59;99960.17;1678747;85;21059;-66
2022/06/24 03:50:22;;;;;;;22.42;16.40;;;;;;;27.35;81.26;99951.81;1681950;85;21055;-66
2022/06/24 03:52:49;;;;;;;21.62;16.60;;;;;;;27.56;79.76;99957.59;1678623;85;21036;-66
2022/06/24 03:55:16;;;;;;;25.97;18.07;;;;;;;27.73;80.34;99956.78;1679973;84;21118;-66
2022/06/24 03:57:43;;;;;;;28.12;19.02;;;;;;;27.82;79.62;99958.77;1682328;84;21104;-66
2022/06/24 04:00:12;;;;;;;34.45;22.85;;;;;;;28.16;78.40;99947.39;1681573;85;21146;-67
2022/06/24 04:02:40;;;;;;;32.05;20.50;;;;;;;28.48;76.81;99952.52;1676211;85;21086;-66
2022/06/24 04:05:10;;;;;;;42.90;27.35;;;;;;;28.26;77.37;99956.30;1688113;84;21468;-67
2022/06/24 04:07:39;;;;;;;38.17;24.63;;;;;;;28.33;76.75;99955.31;1684688;85;21595;-66
2022/06/24 04:10:07;;;;;;;34.85;24.27;;;;;;;28.71;76.34;99952.22;1677910;85;21073;-66
2022/06/24 04:12:37;;;;;;;31.68;22.90;;;;;;;28.36;74.92;99954.09;1683114;85;21496;-67
2022/06/24 04:15:17;;;;;;;35.00;23.38;;;;;;;28.15;76.99;99957.16;1675981;85;21098;-66
2022/06/24 04:17:47;;;;;;;29.25;20.80;;;;;;;28.00;76.03;99963.08;1683095;85;21052;-66
2022/06/24 04:20:17;;;;;;;31.60;22.17;;;;;;;28.14;76.11;99958.19;1683577;85;21020;-66
2022/06/24 04:22:46;;;;;;;30.88;22.45;;;;;;;28.16;75.71;99956.65;1683539;85;21563;-67
2022/06/24 04:25:13;;;;;;;32.70;23.02;;;;;;;27.96;76.17;99965.31;1682986;84;21063;-66
2022/06/24 04:27:41;;;;;;;33.70;23.60;;;;;;;27.79;76.85;99971.88;1684197;85;21027;-66
2022/06/24 04:30:11;;;;;;;35.98;26.25;;;;;;;28.16;75.83;99967.23;1661709;85;21192;-66
2022/06/24 04:32:39;;;;;;;38.58;27.75;;;;;;;27.64;76.53;99971.17;1680267;85;21095;-66
2022/06/24 04:35:08;;;;;;;31.40;22.70;;;;;;;28.73;74.17;99963.92;1676813;85;21215;-66
2022/06/24 04:37:39;;;;;;;38.70;25.17;;;;;;;28.41;73.04;99970.22;1678027;85;21032;-66
2022/06/24 04:40:12;;;;;;;33.38;23.38;;;;;;;27.83;75.48;99965.19;1679362;85;21114;-66
2022/06/24 04:42:40;;;;;;;33.28;23.10;;;;;;;28.15;74.93;99962.97;1680996;85;21180;-66
2022/06/24 04:45:09;;;;;;;33.58;24.00;;;;;;;28.57;73.26;99967.77;1684031;85;21031;-66
2022/06/24 04:47:36;;;;;;;29.40;21.52;;;;;;;28.63;72.45;99973.59;1678528;85;21043;-66
2022/06/24 04:50:05;;;;;;;30.43;20.05;;;;;;;28.73;71.71;99975.35;1679362;84;21093;-66
2022/06/24 04:52:33;;;;;;;26.50;20.20;;;;;;;28.67;71.77;99975.31;1682863;85;21071;-66
2022/06/24 04:55:01;;;;;;;22.62;17.17;;;;;;;28.81;71.54;99978.81;1682822;85;21564;-66
2022/06/24 04:57:29;;;;;;;22.48;17.17;;;;;;;29.09;70.76;99974.70;1684060;84;21055;-66
2022/06/24 04:59:56;;;;;;;21.12;15.55;;;;;;;29.09;69.83;99978.16;1679476;85;21028;-66
2022/06/24 05:02:23;;;;;;;18.87;15.05;;;;;;;29.03;69.71;99974.98;1680576;85;21520;-66
2022/06/24 05:04:51;;;;;;;21.95;15.58;;;;;;;28.50;69.80;99976.98;1679451;85;21091;-66
2022/06/24 05:07:18;;;;;;;17.27;13.68;;;;;;;28.47;70.80;99986.63;1684715;85;21079;-66
2022/06/24 05:09:46;;;;;;;20.48;15.00;;;;;;;28.54;71.78;99987.49;1677103;85;21164;-66
2022/06/24 05:12:13;;;;;;;19.17;14.07;;;;;;;28.16;72.72;99979.98;1682401;85;21004;-66
2022/06/24 05:14:42;;;;;;;19.77;14.90;;;;;;;28.18;72.68;99981.09;1682125;85;22718;-66
2022/06/24 05:17:09;;;;;;;21.50;17.35;;;;;;;28.42;72.36;99986.40;1680610;85;21036;-66
2022/06/24 05:19:37;;;;;;;25.60;20.23;;;;;;;28.37;71.81;99984.34;1678764;85;21075;-66
2022/06/24 05:22:04;;;;;;;29.90;22.35;;;;;;;28.03;72.90;99994.96;1681765;85;21048;-66
2022/06/24 05:24:32;;;;;;;32.48;23.18;;;;;;;28.07;73.53;99998.34;1682659;85;21114;-66
2022/06/24 05:26:59;;;;;;;39.35;25.90;;;;;;;28.11;73.08;100006.20;1680756;85;21111;-66
2022/06/24 05:29:27;;;;;;;32.70;25.85;;;;;;;28.43;71.86;99997.80;1682371;84;21079;-66
2022/06/24 05:31:54;;;;;;;34.27;24.80;;;;;;;28.57;70.83;99996.89;1681329;85;21500;-66
2022/06/24 05:34:22;;;;;;;35.30;24.20;;;;;;;28.33;71.55;99997.67;1682176;85;21083;-66
2022/06/24 05:36:49;;;;;;;32.83;24.50;;;;;;;28.24;72.34;100000.67;1680666;85;21075;-66
2022/06/24 05:39:16;;;;;;;31.65;23.32;;;;;;;28.65;71.34;99991.42;1681152;85;21090;-66
2022/06/24 05:41:43;;;;;;;37.88;25.75;;;;;;;29.34;69.21;99993.02;1679215;85;21043;-66
2022/06/24 05:44:11;;;;;;;38.10;24.92;;;;;;;28.94;69.67;99992.11;1680487;85;21067;-66
2022/06/24 05:46:40;;;;;;;36.77;26.02;;;;;;;29.14;68.11;99992.19;1681258;85;21051;-66
2022/06/24 05:49:07;;;;;;;39.05;25.60;;;;;;;29.60;67.11;99991.88;1685274;85;21138;-67
2022/06/24 05:51:39;;;;;;;37.28;26.20;;;;;;;29.24;68.06;99988.63;1682297;85;21032;-67
2022/06/24 05:56:50;;;;;;;33.30;22.70;;;;;;;29.41;66.58;100004.13;1686915;84;21457;-66
2022/06/24 05:59:19;;;;;;;29.07;19.70;;;;;;;29.45;67.64;100002.70;1683145;84;21071;-66
2022/06/24 06:01:49;;;;;;;22.60;17.45;;;;;;;29.57;66.13;100003.72;1684509;84;21511;-66
2022/06/24 06:04:16;;;;;;;21.85;16.48;;;;;;;29.66;66.34;99999.02;1687026;84;21106;-66
2022/06/24 06:06:43;;;;;;;21.42;15.68;;;;;;;30.01;65.26;99986.84;1683669;84;21071;-66
2022/06/24 06:09:10;;;;;;;16.95;13.40;;;;;;;30.04;65.24;99990.42;1690491;84;21051;-66
2022/06/24 06:11:39;;;;;;;17.37;13.43;;;;;;;29.27;67.16;99996.16;1686205;84;21044;-66
2022/06/24 06:14:07;;;;;;;18.67;13.13;;;;;;;28.64;68.94;100006.18;1684535;84;21508;-67
2022/06/24 06:16:35;;;;;;;18.80;12.55;;;;;;;28.74;69.30;100000.00;1687272;84;21015;-66
2022/06/24 06:19:02;;;;;;;16.60;13.25;;;;;;;29.51;67.53;99992.61;1689880;83;21051;-66
2022/06/24 06:21:30;;;;;;;14.60;12.80;;;;;;;29.19;67.30;99995.02;1682175;83;21119;-66
2022/06/24 06:23:57;;;;;;;17.27;12.30;;;;;;;29.72;66.87;99999.03;1685454;84;21043;-66
2022/06/24 06:26:24;;;;;;;14.60;11.90;;;;;;;29.84;66.76;99997.90;1684546;83;21016;-66
2022/06/24 06:28:53;;;;;;;17.55;12.58;;;;;;;29.34;67.91;100010.77;1681667;84;21654;-66
2022/06/24 06:31:20;;;;;;;18.12;13.60;;;;;;;28.99;68.92;100008.20;1686924;83;21579;-66
2022/06/24 06:33:49;;;;;;;19.60;13.75;;;;;;;28.49;70.53;100016.37;1684499;84;21107;-66
2022/06/24 06:36:16;;;;;;;19.48;14.63;;;;;;;28.17;72.40;100020.48;1685699;84;21080;-66
2022/06/24 06:38:44;;;;;;;16.60;14.75;;;;;;;27.94;74.13;100024.70;1688279;84;21149;-66
2022/06/24 06:41:11;;;;;;;19.37;15.98;;;;;;;27.91;75.10;100026.42;1682016;84;21559;-66
2022/06/24 06:43:39;;;;;;;21.25;14.95;;;;;;;27.97;75.34;100019.84;1686082;84;21212;-66
2022/06/24 06:46:11;;;;;;;21.52;16.07;;;;;;;27.97;75.72;100021.68;1683293;84;21556;-66
2022/06/24 06:48:39;;;;;;;22.62;18.20;;;;;;;27.88;76.54;100026.80;1696932;84;21051;-66
2022/06/24 06:51:07;;;;;;;21.17;17.02;;;;;;;28.15;76.18;100022.52;1690935;84;21094;-66
2022/06/24 06:53:34;;;;;;;27.80;17.87;;;;;;;28.33;75.82;100024.66;1696636;84;21068;-66
2022/06/24 06:56:03;;;;;;;23.22;16.30;;;;;;;28.52;75.50;100027.11;1691651;84;21098;-66
2022/06/24 06:58:32;;;;;;;22.48;16.02;;;;;;;28.60;75.03;100022.16;1692645;82;21043;-66
2022/06/24 07:00:59;;;;;;;23.65;16.80;;;;;;;28.74;74.31;100014.05;1696871;82;21036;-67
2022/06/24 07:03:27;;;;;;;25.32;17.77;;;;;;;28.54;75.04;100004.70;1684814;82;21055;-66
2022/06/24 07:05:54;;;;;;;25.20;18.50;;;;;;;28.30;75.46;100013.92;1689999;82;21079;-67
2022/06/24 07:08:23;;;;;;;23.15;18.10;;;;;;;28.69;74.59;100016.50;1691951;82;21161;-67
2022/06/24 07:10:50;;;;;;;24.65;17.80;;;;;;;28.69;74.86;100017.82;1696567;84;21030;-67
2022/06/24 07:13:18;;;;;;;28.70;21.17;;;;;;;28.72;75.08;100012.63;1700001;83;21098;-67
2022/06/24 07:15:47;;;;;;;27.77;21.68;;;;;;;28.57;74.95;100002.19;1688519;83;21039;-67
2022/06/24 07:18:14;;;;;;;29.10;20.65;;;;;;;28.75;74.55;100006.91;1687208;84;21553;-67
2022/06/24 07:20:44;;;;;;;27.55;21.23;;;;;;;29.04;74.05;100007.63;1695236;84;21048;-67
2022/06/24 07:23:11;;;;;;;27.90;21.52;;;;;;;29.04;73.50;100011.09;1690200;83;21071;-67
2022/06/24 07:25:38;;;;;;;26.85;20.23;;;;;;;29.15;72.92;100019.78;1695480;83;21091;-67
2022/06/24 07:28:06;;;;;;;24.00;18.80;;;;;;;29.42;72.12;100019.00;1698545;82;21027;-67
2022/06/24 07:30:34;;;;;;;24.80;19.05;;;;;;;30.04;70.79;100021.75;1691024;83;21034;-67
2022/06/24 07:33:01;;;;;;;25.05;18.82;;;;;;;30.90;67.58;100021.18;1688649;82;21161;-67
2022/06/24 07:35:29;;;;;;;21.87;15.68;;;;;;;31.68;64.78;100019.53;1696193;82;21131;-67
2022/06/24 07:37:56;;;;;;;19.20;14.60;;;;;;;31.66;63.51;100029.58;1688967;84;21818;-67
2022/06/24 07:40:25;;;;;;;13.58;10.53;;;;;;;31.96;63.30;100028.91;1687350;84;21087;-67
2022/06/24 07:42:52;;;;;;;12.33;9.45;;;;;;;31.54;62.86;100028.66;1694561;84;21066;-67
2022/06/24 07:45:19;;;;;;;9.70;8.13;;;;;;;31.46;62.99;100025.75;1697406;83;21047;-67
2022/06/24 07:47:46;;;;;;;9.98;8.28;;;;;;;31.34;63.42;100028.26;1686734;83;21011;-67
2022/06/24 07:50:14;;;;;;;10.58;8.25;;;;;;;31.26;63.38;100011.23;1686193;82;21086;-66
2022/06/24 07:52:41;;;;;;;11.75;8.60;;;;;;;30.25;64.87;100024.69;1692106;84;21019;-67
2022/06/24 07:57:54;;;;;;;13.15;9.28;;;;;;;30.00;66.78;100017.08;1694989;82;21090;-66
2022/06/24 08:00:21;;;;;;;12.55;9.18;;;;;;;30.15;66.08;100011.84;1691551;84;21083;-66
2022/06/24 08:02:49;;;;;;;11.03;9.60;;;;;;;30.15;66.08;100011.84;1692707;84;21078;-66
2022/06/24 08:05:16;;;;;;;11.08;9.58;;;;;;;31.28;64.20;100009.18;1690867;82;21174;-66
2022/06/24 08:07:44;;;;;;;11.15;9.23;;;;;;;31.28;64.20;100009.18;1688606;83;21138;-66
2022/06/24 08:10:13;;;;;;;11.68;8.43;;;;;;;31.46;64.37;100001.81;1687023;82;21142;-67
2022/06/24 08:12:42;;;;;;;10.23;8.70;;;;;;;30.75;64.63;99998.86;1684595;82;21071;-66
2022/06/24 08:15:11;;;;;;;11.97;8.05;;;;;;;30.91;63.97;99989.61;1700415;83;21134;-67
2022/06/24 08:17:39;;;;;;;10.48;9.08;;;;;;;30.95;64.37;99986.30;1705785;84;21071;-67
2022/06/24 08:20:08;;;;;;;11.68;8.83;;;;;;;31.32;64.06;99983.78;1692331;82;21135;-66
2022/06/24 08:22:36;;;;;;;10.55;8.88;;;;;;;31.79;63.99;99978.07;1707900;83;21524;-66
2022/06/24 08:25:05;;;;;;;10.85;8.60;;;;;;;31.23;63.63;99977.12;1703825;83;21019;-67
2022/06/24 08:27:32;;;;;;;10.60;8.03;;;;;;;31.33;62.95;99974.78;1686487;82;21052;-66
2022/06/24 08:30:00;;;;;;;10.75;7.90;;;;;;;31.45;63.08;99971.43;1691121;82;21039;-67
2022/06/24 08:32:28;;;;;;;8.28;7.45;;;;;;;31.79;61.77;99977.27;1694352;84;21019;-66
2022/06/24 08:34:55;;;;;;;10.70;7.70;;;;;;;32.02;61.46;99978.00;1686097;83;21058;-67
2022/06/24 08:37:23;;;;;;;11.33;7.70;;;;;;;32.28;61.23;99980.84;1689990;83;21047;-66
2022/06/24 08:39:50;;;;;;;11.93;7.60;;;;;;;31.67;61.75;99985.16;1692993;83;21539;-67
2022/06/24 08:42:17;;;;;;;8.03;7.22;;;;;;;31.38;62.43;99985.29;1693299;83;21110;-66
2022/06/24 08:44:45;;;;;;;8.83;6.85;;;;;;;31.72;60.38;99983.47;1691549;83;21121;-67
2022/06/24 08:47:15;;;;;;;8.65;6.97;;;;;;;31.88;59.23;99974.62;1696454;82;21078;-66
2022/06/24 08:49:42;;;;;;;8.78;7.92;;;;;;;31.71;59.97;99971.70;1687187;83;21090;-66
2022/06/24 08:52:12;;;;;;;10.43;8.88;;;;;;;31.97;58.96;99968.48;1695081;83;21527;-67
2022/06/24 08:54:43;;;;;;;12.55;10.20;;;;;;;31.94;58.61;99963.91;1690745;82;21789;-67
2022/06/24 08:57:12;;;;;;;11.00;8.53;;;;;;;31.90;58.95;99969.89;1689338;83;21140;-66
2022/06/24 08:59:39;;;;;;;7.55;6.85;;;;;;;32.07;58.63;99962.16;1688779;84;21011;-66
2022/06/24 09:02:07;;;;;;;8.18;6.85;;;;;;;32.23;57.07;99963.41;1694713;83;21054;-66
2022/06/24 09:04:35;;;;;;;7.60;6.50;;;;;;;32.33;56.95;99956.50;1698806;83;21155;-66
2022/06/24 09:07:03;;;;;;;5.12;4.00;;;;;;;32.60;57.08;99943.38;1699914;83;21042;-66
2022/06/24 09:09:30;;;;;;;5.78;4.30;;;;;;;32.20;54.00;99946.53;1691603;83;21082;-66
2022/06/24 09:11:58;;;;;;;5.72;4.85;;;;;;;32.34;53.69;99932.00;1688938;83;21834;-67
2022/06/24 09:14:49;;;;;;;6.67;5.10;;;;;;;31.73;55.03;99934.55;1673364;84;21562;-66
2022/06/24 09:17:17;;;;;;;4.37;3.85;;;;;;;31.92;55.50;99938.02;1694764;82;21089;-66
2022/06/24 09:19:44;;;;;;;5.47;4.70;;;;;;;31.68;54.43;99941.56;1686017;82;21622;-66
2022/06/24 09:22:11;;;;;;;8.55;5.30;;;;;;;32.05;54.62;99931.75;1691113;82;21063;-67
2022/06/24 09:24:47;;;;;;;6.85;5.85;;;;;;;32.19;55.41;99938.27;1688168;82;21149;-67
2022/06/24 09:27:15;;;;;;;6.80;5.45;;;;;;;32.72;54.75;99938.91;1688820;83;21030;-67
2022/06/24 09:29:52;;;;;;;6.40;5.70;;;;;;;32.29;54.65;99931.36;1700224;84;21063;-66
2022/06/24 09:32:17;;;;;;;5.80;5.20;;;;;;;32.24;54.10;99932.56;1695203;84;21094;-67
2022/06/24 09:35:05;;;;;;;6.97;5.65;;;;;;;32.61;52.74;99931.70;1696326;84;21082;-67
2022/06/24 09:37:46;;;;;;;6.20;5.17;;;;;;;32.81;53.25;99928.22;1691919;82;21122;-66
2022/06/24 09:40:22;;;;;;;7.97;5.25;;;;;;;33.25;51.95;99934.09;1691291;83;21014;-67
2022/06/24 09:43:09;;;;;;;6.05;4.97;;;;;;;33.23;51.95;99929.51;1693935;83;21138;-66
2022/06/24 09:45:52;;;;;;;6.75;3.90;;;;;;;33.57;51.50;99939.62;1694355;83;21083;-67
2022/06/24 09:48:35;;;;;;;6.58;4.35;;;;;;;33.44;50.03;99942.01;1702711;83;21048;-66
2022/06/24 09:51:07;;;;;;;5.00;4.00;;;;;;;33.64;49.81;99952.34;1684556;82;21027;-66
2022/06/24 09:53:39;;;;;;;7.30;4.60;;;;;;;33.21;49.42;99952.12;1695958;84;21048;-66
2022/06/24 09:56:08;;;;;;;5.30;4.20;;;;;;;32.44;51.32;99958.95;1687492;83;21451;-67
2022/06/24 09:58:39;;;;;;;6.10;4.40;;;;;;;32.73;50.57;99956.53;1681183;84;21106;-67
2022/06/24 10:01:07;;;;;;;6.95;4.87;;;;;;;32.77;50.62;99964.86;1684915;83;21030;-66
2022/06/24 10:03:38;;;;;;;5.60;4.70;;;;;;;32.38;51.51;99959.02;1676642;83;21106;-66
2022/06/24 10:06:11;;;;;;;9.35;5.80;;;;;;;32.12;51.77;99961.79;1683824;83;21126;-67
2022/06/24 10:08:40;;;;;;;;;;;;;;;32.27;51.88;99948.61;1684950;83;21048;-67
2022/06/24 10:11:11;;;;;;;9.45;6.53;;;;;;;32.59;52.03;99941.77;1684272;85;20137;-67
2022/06/24 10:13:39;;;;;;;9.63;7.40;;;;;;;32.37;52.77;99946.75;1684808;83;21575;-66
2022/06/24 10:16:07;;;;;;;11.78;7.65;;;;;;;32.89;53.09;99930.55;1681966;83;21063;-67
2022/06/24 10:18:39;;;;;;;8.95;8.05;;;;;;;32.91;52.90;99926.34;1680664;84;21094;-67
2022/06/24 10:21:09;;;;;;;9.90;7.65;;;;;;;32.97;52.77;99932.08;1661990;85;21048;-67
2022/06/24 10:23:49;;;;;;;11.00;8.93;;;;;;;32.89;52.19;99957.22;1683059;83;21539;-67
2022/06/24 10:26:30;;;;;;;12.90;9.73;;;;;;;32.77;53.42;99943.55;1687370;83;21094;-67
2022/06/24 10:29:09;;;;;;;12.55;9.95;;;;;;;32.53;52.94;99947.45;1710435;84;26335;-67
2022/06/24 10:31:54;;;;;;;13.55;10.58;;;;;;;32.86;53.46;99943.52;1697926;83;21523;-67
2022/06/24 10:34:28;;;;;;;13.35;11.30;;;;;;;32.58;54.07;99946.27;1687456;84;21558;-66
2022/06/24 10:37:13;;;;;;;16.02;11.80;;;;;;;32.08;55.41;99945.97;1668480;84;21023;-67
2022/06/24 10:39:53;;;;;;;15.68;10.53;;;;;;;32.27;55.32;99941.95;1693802;83;21048;-66
2022/06/24 10:42:24;;;;;;;15.70;10.10;;;;;;;32.35;55.43;99938.97;1692222;83;21106;-67
2022/06/24 10:45:05;;;;;;;13.45;9.85;;;;;;;31.62;55.84;99941.11;1701571;82;21627;-67
2022/06/24 10:47:39;;;;;;;10.53;8.40;;;;;;;31.40;57.12;99932.69;1697770;83;21082;-66
2022/06/24 10:50:13;;;;;;;7.62;5.70;;;;;;;31.26;57.53;99943.95;1694284;83;21054;-66
2022/06/24 10:52:50;;;;;;;6.78;4.35;;;;;;;30.87;54.82;99945.85;1686189;84;21577;-67
2022/06/24 10:55:29;;;;;;;5.05;3.52;;;;;;;30.65;54.87;99946.70;1693458;83;21031;-67
2022/06/24 10:58:05;;;;;;;5.65;4.00;;;;;;;30.20;53.74;99951.99;1685764;83;21043;-66
2022/06/24 11:00:48;;;;;;;4.50;4.10;;;;;;;30.32;54.13;99949.82;1691745;84;21102;-66
2022/06/24 11:03:18;;;;;;;5.40;3.77;;;;;;;30.07;54.46;99956.81;1694675;83;21610;-66
2022/06/24 11:05:47;;;;;;;;;;;;;;;30.23;54.36;99960.84;1689640;83;21556;-67
2022/06/24 11:08:22;;;;;;;4.58;3.37;;;;;;;29.83;54.07;99966.30;1683285;84;20112;-67
2022/06/24 11:10:52;;;;;;;4.90;4.10;;;;;;;29.91;54.40;99973.52;1669579;84;22223;-67
2022/06/24 11:13:23;;;;;;;5.65;5.08;;;;;;;29.18;57.28;99980.64;1653184;84;21745;-66
2022/06/24 11:15:58;;;;;;;6.72;5.87;;;;;;;28.09;65.77;99994.99;1662991;84;21058;-66
2022/06/24 11:18:30;;;;;;;7.08;5.95;;;;;;;28.09;65.77;99994.99;1666821;85;21066;-67
2022/06/24 11:21:08;;;;;;;7.72;6.22;;;;;;;27.52;71.09;99990.20;1669717;85;21066;-67
2022/06/24 11:23:39;;;;;;;10.32;6.70;;;;;;;27.93;74.47;99990.01;1657575;84;21122;-67
2022/06/24 11:26:18;;;;;;;10.25;7.30;;;;;;;27.18;78.52;99994.33;1661085;86;21165;-67
2022/06/24 11:28:53;;;;;;;9.48;7.50;;;;;;;27.23;83.51;99986.34;1658522;84;21089;-67
2022/06/24 11:31:26;;;;;;;10.80;8.33;;;;;;;27.08;86.33;99977.98;1651655;85;21047;-67
2022/06/24 11:34:04;;;;;;;11.97;8.55;;;;;;;26.98;88.11;99979.59;1666384;84;21047;-68
2022/06/24 11:36:33;;;;;;;14.18;10.43;;;;;;;27.26;91.83;99974.11;1623314;86;21063;-68
2022/06/24 11:39:07;;;;;;;15.78;11.63;;;;;;;27.33;91.16;99969.20;1645807;86;21521;-68
2022/06/24 11:41:38;;;;;;;16.75;12.47;;;;;;;27.46;90.71;99955.27;1659909;85;21101;-68